sensor_id;sensor_type;location;lat;lon;timestamp;P1;durP1;ratioP1;P2;durP2;ratioP2
66721;SDS011;53633;49.932;10.884;2023-11-21T00:00:22;4.30;;;0.95;;
66721;SDS011;53633;49.932;10.884;2023-11-21T00:02:49;3.90;;;0.85;;
66721;SDS011;53633;49.932;10.884;2023-11-21T00:05:17;4.90;;;0.93;;
66721;SDS011;53633;49.932;10.884;2023-11-21T00:07:43;3.50;;;0.77;;
66721;SDS011;53633;49.932;10.884;2023-11-21T00:10:11;5.70;;;0.70;;
66721;SDS011;53633;49.932;10.884;2023-11-21T00:12:38;4.00;;;1.02;;
66721;SDS011;53633;49.932;10.884;2023-11-21T00:15:05;3.65;;;0.80;;
66721;SDS011;53633;49.932;10.884;2023-11-21T00:17:33;4.20;;;0.90;;
66721;SDS011;53633;49.932;10.884;2023-11-21T00:20:01;3.20;;;0.80;;
66721;SDS011;53633;49.932;10.884;2023-11-21T00:22:29;2.73;;;0.70;;
66721;SDS011;53633;49.932;10.884;2023-11-21T00:24:55;5.32;;;1.08;;
66721;SDS011;53633;49.932;10.884;2023-11-21T00:27:22;4.97;;;1.10;;
66721;SDS011;53633;49.932;10.884;2023-11-21T00:29:49;5.20;;;1.27;;
66721;SDS011;53633;49.932;10.884;2023-11-21T00:32:15;8.73;;;1.45;;
66721;SDS011;53633;49.932;10.884;2023-11-21T00:34:42;3.20;;;0.93;;
66721;SDS011;53633;49.932;10.884;2023-11-21T00:37:09;2.88;;;0.80;;
66721;SDS011;53633;49.932;10.884;2023-11-21T00:39:37;5.28;;;0.90;;
66721;SDS011;53633;49.932;10.884;2023-11-21T00:42:04;4.78;;;0.80;;
66721;SDS011;53633;49.932;10.884;2023-11-21T00:44:31;4.28;;;0.80;;
66721;SDS011;53633;49.932;10.884;2023-11-21T00:46:58;3.63;;;1.03;;
66721;SDS011;53633;49.932;10.884;2023-11-21T00:49:24;4.65;;;0.90;;
66721;SDS011;53633;49.932;10.884;2023-11-21T00:51:51;4.95;;;0.80;;
66721;SDS011;53633;49.932;10.884;2023-11-21T00:54:18;6.38;;;1.17;;
66721;SDS011;53633;49.932;10.884;2023-11-21T00:56:46;5.00;;;1.00;;
66721;SDS011;53633;49.932;10.884;2023-11-21T00:59:13;6.17;;;1.00;;
66721;SDS011;53633;49.932;10.884;2023-11-21T01:01:39;2.90;;;0.60;;
66721;SDS011;53633;49.932;10.884;2023-11-21T01:04:06;5.38;;;0.70;;
66721;SDS011;53633;49.932;10.884;2023-11-21T01:06:33;4.07;;;1.23;;
66721;SDS011;53633;49.932;10.884;2023-11-21T01:08:59;2.63;;;0.75;;
66721;SDS011;53633;49.932;10.884;2023-11-21T01:11:26;3.80;;;0.80;;
66721;SDS011;53633;49.932;10.884;2023-11-21T01:13:54;3.75;;;0.70;;
66721;SDS011;53633;49.932;10.884;2023-11-21T01:16:21;4.97;;;0.95;;
66721;SDS011;53633;49.932;10.884;2023-11-21T01:18:48;3.30;;;0.88;;
66721;SDS011;53633;49.932;10.884;2023-11-21T01:21:15;3.40;;;0.70;;
66721;SDS011;53633;49.932;10.884;2023-11-21T01:23:41;4.53;;;0.70;;
66721;SDS011;53633;49.932;10.884;2023-11-21T01:26:08;7.85;;;0.85;;
66721;SDS011;53633;49.932;10.884;2023-11-21T01:28:35;2.33;;;0.57;;
66721;SDS011;53633;49.932;10.884;2023-11-21T01:31:03;2.85;;;0.65;;
66721;SDS011;53633;49.932;10.884;2023-11-21T01:33:30;4.20;;;0.75;;
66721;SDS011;53633;49.932;10.884;2023-11-21T01:35:57;3.87;;;0.80;;
66721;SDS011;53633;49.932;10.884;2023-11-21T01:38:24;4.63;;;0.75;;
66721;SDS011;53633;49.932;10.884;2023-11-21T01:40:51;5.80;;;0.60;;
66721;SDS011;53633;49.932;10.884;2023-11-21T01:43:18;2.58;;;0.60;;
66721;SDS011;53633;49.932;10.884;2023-11-21T01:45:44;4.18;;;0.65;;
66721;SDS011;53633;49.932;10.884;2023-11-21T01:48:13;3.13;;;0.70;;
66721;SDS011;53633;49.932;10.884;2023-11-21T01:50:40;5.93;;;1.40;;
66721;SDS011;53633;49.932;10.884;2023-11-21T01:53:07;4.40;;;0.73;;
66721;SDS011;53633;49.932;10.884;2023-11-21T01:55:34;4.68;;;0.80;;
66721;SDS011;53633;49.932;10.884;2023-11-21T01:58:01;4.50;;;0.80;;
66721;SDS011;53633;49.932;10.884;2023-11-21T02:00:28;2.53;;;0.60;;
66721;SDS011;53633;49.932;10.884;2023-11-21T02:02:56;6.68;;;0.65;;
66721;SDS011;53633;49.932;10.884;2023-11-21T02:05:24;2.60;;;0.68;;
66721;SDS011;53633;49.932;10.884;2023-11-21T02:07:51;6.13;;;0.82;;
66721;SDS011;53633;49.932;10.884;2023-11-21T02:10:19;3.70;;;0.85;;
66721;SDS011;53633;49.932;10.884;2023-11-21T02:12:46;3.80;;;0.93;;
66721;SDS011;53633;49.932;10.884;2023-11-21T02:15:13;3.88;;;0.60;;
66721;SDS011;53633;49.932;10.884;2023-11-21T02:17:40;3.90;;;0.70;;
66721;SDS011;53633;49.932;10.884;2023-11-21T02:20:08;3.22;;;0.60;;
66721;SDS011;53633;49.932;10.884;2023-11-21T02:22:36;5.03;;;0.90;;
66721;SDS011;53633;49.932;10.884;2023-11-21T02:25:06;5.40;;;1.20;;
66721;SDS011;53633;49.932;10.884;2023-11-21T02:27:33;5.22;;;1.33;;
66721;SDS011;53633;49.932;10.884;2023-11-21T02:30:00;3.90;;;1.13;;
66721;SDS011;53633;49.932;10.884;2023-11-21T02:32:26;3.45;;;1.00;;
66721;SDS011;53633;49.932;10.884;2023-11-21T02:34:53;4.15;;;0.70;;
66721;SDS011;53633;49.932;10.884;2023-11-21T02:37:20;4.43;;;0.77;;
66721;SDS011;53633;49.932;10.884;2023-11-21T02:39:46;3.78;;;0.82;;
66721;SDS011;53633;49.932;10.884;2023-11-21T02:42:14;5.13;;;0.80;;
66721;SDS011;53633;49.932;10.884;2023-11-21T02:44:41;3.60;;;1.00;;
66721;SDS011;53633;49.932;10.884;2023-11-21T02:47:08;5.50;;;1.10;;
66721;SDS011;53633;49.932;10.884;2023-11-21T02:49:35;3.47;;;0.80;;
66721;SDS011;53633;49.932;10.884;2023-11-21T02:52:01;2.55;;;0.63;;
66721;SDS011;53633;49.932;10.884;2023-11-21T02:54:28;5.90;;;1.00;;
66721;SDS011;53633;49.932;10.884;2023-11-21T02:56:55;5.28;;;0.85;;
66721;SDS011;53633;49.932;10.884;2023-11-21T02:59:23;5.75;;;1.35;;
66721;SDS011;53633;49.932;10.884;2023-11-21T03:01:49;3.57;;;0.80;;
66721;SDS011;53633;49.932;10.884;2023-11-21T03:04:16;5.97;;;0.70;;
66721;SDS011;53633;49.932;10.884;2023-11-21T03:06:43;3.80;;;1.02;;
66721;SDS011;53633;49.932;10.884;2023-11-21T03:09:10;4.15;;;0.93;;
66721;SDS011;53633;49.932;10.884;2023-11-21T03:11:37;5.20;;;0.80;;
66721;SDS011;53633;49.932;10.884;2023-11-21T03:14:04;3.83;;;0.70;;
66721;SDS011;53633;49.932;10.884;2023-11-21T03:16:32;3.63;;;0.75;;
66721;SDS011;53633;49.932;10.884;2023-11-21T03:19:00;3.83;;;1.00;;
66721;SDS011;53633;49.932;10.884;2023-11-21T03:21:27;3.53;;;0.95;;
66721;SDS011;53633;49.932;10.884;2023-11-21T03:23:53;2.85;;;0.90;;
66721;SDS011;53633;49.932;10.884;2023-11-21T03:26:20;3.87;;;0.97;;
66721;SDS011;53633;49.932;10.884;2023-11-21T03:28:47;3.80;;;0.95;;
66721;SDS011;53633;49.932;10.884;2023-11-21T03:31:13;5.13;;;1.10;;
66721;SDS011;53633;49.932;10.884;2023-11-21T03:33:43;3.33;;;0.60;;
66721;SDS011;53633;49.932;10.884;2023-11-21T03:36:10;4.03;;;0.70;;
66721;SDS011;53633;49.932;10.884;2023-11-21T03:38:37;2.73;;;0.70;;
66721;SDS011;53633;49.932;10.884;2023-11-21T03:41:03;3.15;;;0.77;;
66721;SDS011;53633;49.932;10.884;2023-11-21T03:43:31;3.00;;;0.70;;
66721;SDS011;53633;49.932;10.884;2023-11-21T03:45:58;4.57;;;1.00;;
66721;SDS011;53633;49.932;10.884;2023-11-21T03:48:24;3.95;;;0.60;;
66721;SDS011;53633;49.932;10.884;2023-11-21T03:50:53;3.20;;;0.80;;
66721;SDS011;53633;49.932;10.884;2023-11-21T03:53:19;4.57;;;0.90;;
66721;SDS011;53633;49.932;10.884;2023-11-21T03:55:46;5.68;;;1.30;;
66721;SDS011;53633;49.932;10.884;2023-11-21T03:58:13;5.07;;;1.48;;
66721;SDS011;53633;49.932;10.884;2023-11-21T04:00:40;5.95;;;1.40;;
66721;SDS011;53633;49.932;10.884;2023-11-21T04:03:06;4.43;;;1.53;;
66721;SDS011;53633;49.932;10.884;2023-11-21T04:05:33;5.38;;;1.70;;
66721;SDS011;53633;49.932;10.884;2023-11-21T04:08:01;4.60;;;1.10;;
66721;SDS011;53633;49.932;10.884;2023-11-21T04:10:28;4.30;;;1.30;;
66721;SDS011;53633;49.932;10.884;2023-11-21T04:12:55;5.55;;;1.35;;
66721;SDS011;53633;49.932;10.884;2023-11-21T04:15:22;5.03;;;1.23;;
66721;SDS011;53633;49.932;10.884;2023-11-21T04:17:49;4.95;;;1.33;;
66721;SDS011;53633;49.932;10.884;2023-11-21T04:20:15;5.40;;;1.30;;
66721;SDS011;53633;49.932;10.884;2023-11-21T04:22:42;3.88;;;1.10;;
66721;SDS011;53633;49.932;10.884;2023-11-21T04:25:13;6.13;;;1.30;;
66721;SDS011;53633;49.932;10.884;2023-11-21T04:27:42;3.90;;;1.40;;
66721;SDS011;53633;49.932;10.884;2023-11-21T04:30:10;3.80;;;1.10;;
66721;SDS011;53633;49.932;10.884;2023-11-21T04:32:38;3.80;;;1.20;;
66721;SDS011;53633;49.932;10.884;2023-11-21T04:35:05;4.85;;;1.17;;
66721;SDS011;53633;49.932;10.884;2023-11-21T04:37:32;4.70;;;1.10;;
66721;SDS011;53633;49.932;10.884;2023-11-21T04:39:59;4.50;;;1.20;;
66721;SDS011;53633;49.932;10.884;2023-11-21T04:42:27;5.00;;;1.17;;
66721;SDS011;53633;49.932;10.884;2023-11-21T04:44:54;5.57;;;0.98;;
66721;SDS011;53633;49.932;10.884;2023-11-21T04:47:20;4.45;;;0.80;;
66721;SDS011;53633;49.932;10.884;2023-11-21T04:49:47;3.05;;;0.77;;
66721;SDS011;53633;49.932;10.884;2023-11-21T04:52:14;3.73;;;1.00;;
66721;SDS011;53633;49.932;10.884;2023-11-21T04:54:41;6.05;;;1.25;;
66721;SDS011;53633;49.932;10.884;2023-11-21T04:57:07;4.07;;;1.13;;
66721;SDS011;53633;49.932;10.884;2023-11-21T04:59:35;4.70;;;1.20;;
66721;SDS011;53633;49.932;10.884;2023-11-21T05:02:02;4.63;;;1.23;;
66721;SDS011;53633;49.932;10.884;2023-11-21T05:04:29;3.53;;;0.80;;
66721;SDS011;53633;49.932;10.884;2023-11-21T05:06:56;4.80;;;0.93;;
66721;SDS011;53633;49.932;10.884;2023-11-21T05:09:23;6.78;;;1.30;;
66721;SDS011;53633;49.932;10.884;2023-11-21T05:11:49;6.72;;;1.65;;
66721;SDS011;53633;49.932;10.884;2023-11-21T05:14:16;6.68;;;1.38;;
66721;SDS011;53633;49.932;10.884;2023-11-21T05:16:44;7.07;;;1.37;;
66721;SDS011;53633;49.932;10.884;2023-11-21T05:19:11;6.00;;;1.75;;
66721;SDS011;53633;49.932;10.884;2023-11-21T05:21:37;7.65;;;1.52;;
66721;SDS011;53633;49.932;10.884;2023-11-21T05:24:05;7.28;;;1.50;;
66721;SDS011;53633;49.932;10.884;2023-11-21T05:26:32;7.13;;;1.58;;
66721;SDS011;53633;49.932;10.884;2023-11-21T05:28:58;6.90;;;1.40;;
66721;SDS011;53633;49.932;10.884;2023-11-21T05:31:25;5.55;;;1.58;;
66721;SDS011;53633;49.932;10.884;2023-11-21T05:33:53;5.78;;;1.67;;
66721;SDS011;53633;49.932;10.884;2023-11-21T05:36:20;3.92;;;1.10;;
66721;SDS011;53633;49.932;10.884;2023-11-21T05:38:47;6.63;;;1.48;;
66721;SDS011;53633;49.932;10.884;2023-11-21T05:41:14;4.97;;;1.20;;
66721;SDS011;53633;49.932;10.884;2023-11-21T05:43:41;5.30;;;1.13;;
66721;SDS011;53633;49.932;10.884;2023-11-21T05:46:08;7.05;;;1.55;;
66721;SDS011;53633;49.932;10.884;2023-11-21T05:48:35;6.18;;;1.30;;
66721;SDS011;53633;49.932;10.884;2023-11-21T05:51:03;3.75;;;1.13;;
66721;SDS011;53633;49.932;10.884;2023-11-21T05:53:30;4.27;;;1.10;;
66721;SDS011;53633;49.932;10.884;2023-11-21T05:55:57;6.10;;;1.30;;
66721;SDS011;53633;49.932;10.884;2023-11-21T05:58:24;6.20;;;1.20;;
66721;SDS011;53633;49.932;10.884;2023-11-21T06:00:51;5.13;;;1.50;;
66721;SDS011;53633;49.932;10.884;2023-11-21T06:03:17;5.22;;;1.15;;
66721;SDS011;53633;49.932;10.884;2023-11-21T06:05:44;3.80;;;0.80;;
66721;SDS011;53633;49.932;10.884;2023-11-21T06:08:12;4.10;;;1.08;;
66721;SDS011;53633;49.932;10.884;2023-11-21T06:10:39;4.55;;;1.70;;
66721;SDS011;53633;49.932;10.884;2023-11-21T06:13:06;6.15;;;1.35;;
66721;SDS011;53633;49.932;10.884;2023-11-21T06:15:33;4.63;;;1.30;;
66721;SDS011;53633;49.932;10.884;2023-11-21T06:17:59;5.00;;;1.90;;
66721;SDS011;53633;49.932;10.884;2023-11-21T06:20:26;6.18;;;1.88;;
66721;SDS011;53633;49.932;10.884;2023-11-21T06:22:53;5.38;;;1.83;;
66721;SDS011;53633;49.932;10.884;2023-11-21T06:25:22;5.40;;;2.28;;
66721;SDS011;53633;49.932;10.884;2023-11-21T06:27:49;6.03;;;2.30;;
66721;SDS011;53633;49.932;10.884;2023-11-21T06:30:16;5.70;;;2.53;;
66721;SDS011;53633;49.932;10.884;2023-11-21T06:32:43;8.35;;;3.13;;
66721;SDS011;53633;49.932;10.884;2023-11-21T06:35:10;6.90;;;2.83;;
66721;SDS011;53633;49.932;10.884;2023-11-21T06:37:37;5.15;;;2.00;;
66721;SDS011;53633;49.932;10.884;2023-11-21T06:40:04;5.60;;;2.22;;
66721;SDS011;53633;49.932;10.884;2023-11-21T06:42:33;6.10;;;2.10;;
66721;SDS011;53633;49.932;10.884;2023-11-21T06:45:00;6.57;;;2.15;;
66721;SDS011;53633;49.932;10.884;2023-11-21T06:47:27;6.75;;;1.92;;
66721;SDS011;53633;49.932;10.884;2023-11-21T06:49:54;6.07;;;1.90;;
66721;SDS011;53633;49.932;10.884;2023-11-21T06:52:20;4.55;;;1.73;;
66721;SDS011;53633;49.932;10.884;2023-11-21T06:54:47;6.00;;;1.90;;
66721;SDS011;53633;49.932;10.884;2023-11-21T06:57:14;6.90;;;2.75;;
66721;SDS011;53633;49.932;10.884;2023-11-21T06:59:43;7.35;;;2.72;;
66721;SDS011;53633;49.932;10.884;2023-11-21T07:02:09;7.93;;;3.05;;
66721;SDS011;53633;49.932;10.884;2023-11-21T07:04:36;6.47;;;2.80;;
66721;SDS011;53633;49.932;10.884;2023-11-21T07:07:03;9.03;;;2.93;;
66721;SDS011;53633;49.932;10.884;2023-11-21T07:09:30;8.55;;;3.22;;
66721;SDS011;53633;49.932;10.884;2023-11-21T07:11:57;8.77;;;3.35;;
66721;SDS011;53633;49.932;10.884;2023-11-21T07:14:24;9.13;;;2.92;;
66721;SDS011;53633;49.932;10.884;2023-11-21T07:16:52;8.05;;;2.75;;
66721;SDS011;53633;49.932;10.884;2023-11-21T07:19:19;6.90;;;2.50;;
66721;SDS011;53633;49.932;10.884;2023-11-21T07:21:46;7.68;;;2.65;;
66721;SDS011;53633;49.932;10.884;2023-11-21T07:24:12;7.43;;;3.28;;
66721;SDS011;53633;49.932;10.884;2023-11-21T07:26:39;6.60;;;2.85;;
66721;SDS011;53633;49.932;10.884;2023-11-21T07:29:06;7.45;;;2.75;;
66721;SDS011;53633;49.932;10.884;2023-11-21T07:31:33;10.53;;;2.73;;
66721;SDS011;53633;49.932;10.884;2023-11-21T07:34:01;7.63;;;2.47;;
66721;SDS011;53633;49.932;10.884;2023-11-21T07:36:27;8.40;;;2.95;;
66721;SDS011;53633;49.932;10.884;2023-11-21T07:38:54;7.90;;;3.08;;
66721;SDS011;53633;49.932;10.884;2023-11-21T07:41:21;7.82;;;2.97;;
66721;SDS011;53633;49.932;10.884;2023-11-21T07:43:56;7.83;;;3.20;;
66721;SDS011;53633;49.932;10.884;2023-11-21T07:46:23;7.68;;;3.30;;
66721;SDS011;53633;49.932;10.884;2023-11-21T07:48:50;7.70;;;2.90;;
66721;SDS011;53633;49.932;10.884;2023-11-21T07:51:18;7.88;;;3.08;;
66721;SDS011;53633;49.932;10.884;2023-11-21T07:53:45;9.23;;;3.53;;
66721;SDS011;53633;49.932;10.884;2023-11-21T07:56:12;7.57;;;3.20;;
66721;SDS011;53633;49.932;10.884;2023-11-21T07:58:38;9.63;;;3.80;;
66721;SDS011;53633;49.932;10.884;2023-11-21T08:01:05;9.38;;;3.60;;
66721;SDS011;53633;49.932;10.884;2023-11-21T08:03:32;8.27;;;3.60;;
66721;SDS011;53633;49.932;10.884;2023-11-21T08:05:59;12.70;;;4.22;;
66721;SDS011;53633;49.932;10.884;2023-11-21T08:08:27;10.33;;;4.73;;
66721;SDS011;53633;49.932;10.884;2023-11-21T08:10:54;10.95;;;4.10;;
66721;SDS011;53633;49.932;10.884;2023-11-21T08:13:21;11.82;;;4.15;;
66721;SDS011;53633;49.932;10.884;2023-11-21T08:15:48;8.48;;;3.80;;
66721;SDS011;53633;49.932;10.884;2023-11-21T08:18:14;9.23;;;3.95;;
66721;SDS011;53633;49.932;10.884;2023-11-21T08:20:41;10.80;;;4.23;;
66721;SDS011;53633;49.932;10.884;2023-11-21T08:23:08;11.70;;;4.50;;
66721;SDS011;53633;49.932;10.884;2023-11-21T08:25:36;11.82;;;4.30;;
66721;SDS011;53633;49.932;10.884;2023-11-21T08:28:03;10.00;;;3.80;;
66721;SDS011;53633;49.932;10.884;2023-11-21T08:30:30;10.60;;;4.35;;
66721;SDS011;53633;49.932;10.884;2023-11-21T08:32:56;10.97;;;3.77;;
66721;SDS011;53633;49.932;10.884;2023-11-21T08:35:23;11.38;;;3.35;;
66721;SDS011;53633;49.932;10.884;2023-11-21T08:37:51;12.23;;;3.47;;
66721;SDS011;53633;49.932;10.884;2023-11-21T08:40:18;8.93;;;3.13;;
66721;SDS011;53633;49.932;10.884;2023-11-21T08:42:46;10.40;;;3.03;;
66721;SDS011;53633;49.932;10.884;2023-11-21T08:45:13;7.87;;;3.13;;
66721;SDS011;53633;49.932;10.884;2023-11-21T08:47:40;7.78;;;3.03;;
66721;SDS011;53633;49.932;10.884;2023-11-21T08:50:07;9.18;;;2.67;;
66721;SDS011;53633;49.932;10.884;2023-11-21T08:52:34;8.73;;;3.28;;
66721;SDS011;53633;49.932;10.884;2023-11-21T08:55:01;9.23;;;3.15;;
66721;SDS011;53633;49.932;10.884;2023-11-21T08:57:28;9.03;;;3.27;;
66721;SDS011;53633;49.932;10.884;2023-11-21T08:59:56;9.60;;;2.92;;
66721;SDS011;53633;49.932;10.884;2023-11-21T09:02:22;8.73;;;3.33;;
66721;SDS011;53633;49.932;10.884;2023-11-21T09:04:49;10.20;;;3.17;;
66721;SDS011;53633;49.932;10.884;2023-11-21T09:07:16;8.00;;;3.22;;
66721;SDS011;53633;49.932;10.884;2023-11-21T09:09:43;11.30;;;3.33;;
66721;SDS011;53633;49.932;10.884;2023-11-21T09:12:09;8.68;;;3.30;;
66721;SDS011;53633;49.932;10.884;2023-11-21T09:14:36;14.60;;;3.63;;
66721;SDS011;53633;49.932;10.884;2023-11-21T09:17:04;9.27;;;3.55;;
66721;SDS011;53633;49.932;10.884;2023-11-21T09:19:31;9.20;;;3.17;;
66721;SDS011;53633;49.932;10.884;2023-11-21T09:21:57;9.47;;;3.10;;
66721;SDS011;53633;49.932;10.884;2023-11-21T09:24:24;8.48;;;3.10;;
66721;SDS011;53633;49.932;10.884;2023-11-21T09:26:51;8.35;;;2.88;;
66721;SDS011;53633;49.932;10.884;2023-11-21T09:29:17;8.13;;;3.20;;
66721;SDS011;53633;49.932;10.884;2023-11-21T09:31:44;7.25;;;3.17;;
66721;SDS011;53633;49.932;10.884;2023-11-21T09:34:12;10.20;;;3.20;;
66721;SDS011;53633;49.932;10.884;2023-11-21T09:36:39;8.55;;;3.30;;
66721;SDS011;53633;49.932;10.884;2023-11-21T09:39:05;8.60;;;3.10;;
66721;SDS011;53633;49.932;10.884;2023-11-21T09:41:33;6.28;;;2.70;;
66721;SDS011;53633;49.932;10.884;2023-11-21T09:44:06;7.38;;;2.97;;
66721;SDS011;53633;49.932;10.884;2023-11-21T09:46:35;7.70;;;2.97;;
66721;SDS011;53633;49.932;10.884;2023-11-21T09:49:02;11.73;;;2.83;;
66721;SDS011;53633;49.932;10.884;2023-11-21T09:51:31;8.85;;;2.70;;
66721;SDS011;53633;49.932;10.884;2023-11-21T09:53:59;8.00;;;2.88;;
66721;SDS011;53633;49.932;10.884;2023-11-21T09:56:27;8.55;;;2.55;;
66721;SDS011;53633;49.932;10.884;2023-11-21T09:58:54;9.07;;;2.70;;
66721;SDS011;53633;49.932;10.884;2023-11-21T10:01:21;8.52;;;3.28;;
66721;SDS011;53633;49.932;10.884;2023-11-21T10:03:50;12.23;;;3.13;;
66721;SDS011;53633;49.932;10.884;2023-11-21T10:06:17;10.05;;;3.10;;
66721;SDS011;53633;49.932;10.884;2023-11-21T10:08:45;9.55;;;3.60;;
66721;SDS011;53633;49.932;10.884;2023-11-21T10:11:21;11.63;;;3.47;;
66721;SDS011;53633;49.932;10.884;2023-11-21T10:13:51;11.45;;;3.28;;
66721;SDS011;53633;49.932;10.884;2023-11-21T10:16:19;12.63;;;3.92;;
66721;SDS011;53633;49.932;10.884;2023-11-21T10:18:46;9.90;;;3.60;;
66721;SDS011;53633;49.932;10.884;2023-11-21T10:21:14;8.30;;;3.58;;
66721;SDS011;53633;49.932;10.884;2023-11-21T10:23:41;11.77;;;3.27;;
66721;SDS011;53633;49.932;10.884;2023-11-21T10:26:09;9.88;;;3.55;;
66721;SDS011;53633;49.932;10.884;2023-11-21T10:28:57;7.28;;;3.30;;
66721;SDS011;53633;49.932;10.884;2023-11-21T10:31:24;12.30;;;3.63;;
66721;SDS011;53633;49.932;10.884;2023-11-21T10:33:53;10.93;;;3.33;;
66721;SDS011;53633;49.932;10.884;2023-11-21T10:36:26;9.23;;;4.07;;
66721;SDS011;53633;49.932;10.884;2023-11-21T10:38:53;7.78;;;3.10;;
66721;SDS011;53633;49.932;10.884;2023-11-21T10:41:21;8.30;;;3.47;;
66721;SDS011;53633;49.932;10.884;2023-11-21T10:43:48;8.55;;;3.03;;
66721;SDS011;53633;49.932;10.884;2023-11-21T10:46:15;7.40;;;3.33;;
66721;SDS011;53633;49.932;10.884;2023-11-21T10:48:42;7.23;;;2.43;;
66721;SDS011;53633;49.932;10.884;2023-11-21T10:51:09;9.63;;;3.20;;
66721;SDS011;53633;49.932;10.884;2023-11-21T10:53:38;8.68;;;3.80;;
66721;SDS011;53633;49.932;10.884;2023-11-21T10:56:06;7.40;;;3.42;;
66721;SDS011;53633;49.932;10.884;2023-11-21T10:58:36;7.97;;;3.15;;
66721;SDS011;53633;49.932;10.884;2023-11-21T11:01:05;8.30;;;3.70;;
66721;SDS011;53633;49.932;10.884;2023-11-21T11:03:33;8.77;;;3.35;;
66721;SDS011;53633;49.932;10.884;2023-11-21T11:06:03;8.65;;;4.03;;
66721;SDS011;53633;49.932;10.884;2023-11-21T11:08:31;7.82;;;3.50;;
66721;SDS011;53633;49.932;10.884;2023-11-21T11:10:58;10.07;;;3.45;;
66721;SDS011;53633;49.932;10.884;2023-11-21T11:13:25;10.83;;;3.50;;
66721;SDS011;53633;49.932;10.884;2023-11-21T11:15:56;8.90;;;3.55;;
66721;SDS011;53633;49.932;10.884;2023-11-21T11:18:24;15.40;;;3.80;;
66721;SDS011;53633;49.932;10.884;2023-11-21T11:20:51;6.05;;;2.40;;
66721;SDS011;53633;49.932;10.884;2023-11-21T11:23:26;6.57;;;2.15;;
66721;SDS011;53633;49.932;10.884;2023-11-21T11:26:06;7.20;;;2.67;;
66721;SDS011;53633;49.932;10.884;2023-11-21T11:28:40;8.95;;;2.90;;
66721;SDS011;53633;49.932;10.884;2023-11-21T11:31:13;6.47;;;2.33;;
66721;SDS011;53633;49.932;10.884;2023-11-21T11:33:46;6.95;;;2.35;;
66721;SDS011;53633;49.932;10.884;2023-11-21T11:36:22;7.43;;;2.47;;
66721;SDS011;53633;49.932;10.884;2023-11-21T11:38:53;7.47;;;1.73;;
66721;SDS011;53633;49.932;10.884;2023-11-21T11:41:24;5.80;;;2.13;;
66721;SDS011;53633;49.932;10.884;2023-11-21T11:43:51;6.35;;;2.17;;
66721;SDS011;53633;49.932;10.884;2023-11-21T11:46:20;6.50;;;2.13;;
66721;SDS011;53633;49.932;10.884;2023-11-21T11:48:47;8.60;;;3.05;;
66721;SDS011;53633;49.932;10.884;2023-11-21T11:51:28;8.33;;;2.97;;
66721;SDS011;53633;49.932;10.884;2023-11-21T11:53:55;7.63;;;2.58;;
66721;SDS011;53633;49.932;10.884;2023-11-21T11:56:23;7.07;;;2.90;;
66721;SDS011;53633;49.932;10.884;2023-11-21T11:58:51;8.48;;;3.40;;
66721;SDS011;53633;49.932;10.884;2023-11-21T12:01:21;6.40;;;2.30;;
66721;SDS011;53633;49.932;10.884;2023-11-21T12:06:51;5.82;;;1.83;;
66721;SDS011;53633;49.932;10.884;2023-11-21T12:09:18;7.68;;;2.05;;
66721;SDS011;53633;49.932;10.884;2023-11-21T12:11:45;6.78;;;1.92;;
66721;SDS011;53633;49.932;10.884;2023-11-21T12:14:12;9.52;;;2.30;;
66721;SDS011;53633;49.932;10.884;2023-11-21T12:16:40;5.17;;;1.90;;
66721;SDS011;53633;49.932;10.884;2023-11-21T12:19:07;7.40;;;1.98;;
66721;SDS011;53633;49.932;10.884;2023-11-21T12:21:36;4.85;;;1.70;;
66721;SDS011;53633;49.932;10.884;2023-11-21T12:24:03;5.55;;;1.73;;
66721;SDS011;53633;49.932;10.884;2023-11-21T12:26:30;5.82;;;1.60;;
66721;SDS011;53633;49.932;10.884;2023-11-21T12:28:57;12.83;;;2.33;;
66721;SDS011;53633;49.932;10.884;2023-11-21T12:31:23;6.13;;;1.67;;
66721;SDS011;53633;49.932;10.884;2023-11-21T12:33:52;7.88;;;1.80;;
66721;SDS011;53633;49.932;10.884;2023-11-21T12:36:19;9.23;;;2.10;;
66721;SDS011;53633;49.932;10.884;2023-11-21T12:38:45;5.97;;;1.48;;
66721;SDS011;53633;49.932;10.884;2023-11-21T12:41:12;7.20;;;1.53;;
66721;SDS011;53633;49.932;10.884;2023-11-21T12:43:39;5.22;;;1.50;;
66721;SDS011;53633;49.932;10.884;2023-11-21T12:46:06;5.38;;;1.80;;
66721;SDS011;53633;49.932;10.884;2023-11-21T12:48:33;9.40;;;1.67;;
66721;SDS011;53633;49.932;10.884;2023-11-21T12:51:01;6.63;;;1.77;;
66721;SDS011;53633;49.932;10.884;2023-11-21T12:53:28;7.30;;;2.10;;
66721;SDS011;53633;49.932;10.884;2023-11-21T12:55:55;6.05;;;1.38;;
66721;SDS011;53633;49.932;10.884;2023-11-21T12:58:22;10.20;;;1.80;;
66721;SDS011;53633;49.932;10.884;2023-11-21T13:00:50;9.20;;;1.98;;
66721;SDS011;53633;49.932;10.884;2023-11-21T13:03:17;8.38;;;2.10;;
66721;SDS011;53633;49.932;10.884;2023-11-21T13:05:45;7.07;;;1.60;;
66721;SDS011;53633;49.932;10.884;2023-11-21T13:08:16;8.85;;;1.80;;
66721;SDS011;53633;49.932;10.884;2023-11-21T13:10:44;4.15;;;1.52;;
66721;SDS011;53633;49.932;10.884;2023-11-21T13:13:11;6.18;;;1.70;;
66721;SDS011;53633;49.932;10.884;2023-11-21T13:15:39;7.35;;;1.42;;
66721;SDS011;53633;49.932;10.884;2023-11-21T13:18:06;6.40;;;1.60;;
66721;SDS011;53633;49.932;10.884;2023-11-21T13:20:33;9.77;;;1.30;;
66721;SDS011;53633;49.932;10.884;2023-11-21T13:23:00;6.47;;;1.20;;
66721;SDS011;53633;49.932;10.884;2023-11-21T13:25:34;7.63;;;1.50;;
66721;SDS011;53633;49.932;10.884;2023-11-21T13:28:01;5.22;;;1.98;;
66721;SDS011;53633;49.932;10.884;2023-11-21T13:30:28;8.03;;;1.47;;
66721;SDS011;53633;49.932;10.884;2023-11-21T13:32:55;10.32;;;1.55;;
66721;SDS011;53633;49.932;10.884;2023-11-21T13:35:22;6.90;;;1.50;;
66721;SDS011;53633;49.932;10.884;2023-11-21T13:37:49;6.68;;;1.73;;
66721;SDS011;53633;49.932;10.884;2023-11-21T13:40:19;4.55;;;1.30;;
66721;SDS011;53633;49.932;10.884;2023-11-21T13:42:47;8.13;;;1.50;;
66721;SDS011;53633;49.932;10.884;2023-11-21T13:45:15;5.70;;;1.20;;
66721;SDS011;53633;49.932;10.884;2023-11-21T13:47:42;9.95;;;1.58;;
66721;SDS011;53633;49.932;10.884;2023-11-21T13:50:08;6.88;;;1.20;;
66721;SDS011;53633;49.932;10.884;2023-11-21T13:52:35;6.13;;;1.38;;
66721;SDS011;53633;49.932;10.884;2023-11-21T13:55:02;6.93;;;1.50;;
66721;SDS011;53633;49.932;10.884;2023-11-21T13:57:29;5.75;;;1.73;;
66721;SDS011;53633;49.932;10.884;2023-11-21T13:59:57;7.25;;;1.48;;
66721;SDS011;53633;49.932;10.884;2023-11-21T14:02:23;6.95;;;1.60;;
66721;SDS011;53633;49.932;10.884;2023-11-21T14:04:50;8.13;;;1.90;;
66721;SDS011;53633;49.932;10.884;2023-11-21T14:07:17;7.33;;;1.40;;
66721;SDS011;53633;49.932;10.884;2023-11-21T14:09:44;6.22;;;1.48;;
66721;SDS011;53633;49.932;10.884;2023-11-21T14:12:11;8.40;;;1.75;;
66721;SDS011;53633;49.932;10.884;2023-11-21T14:14:37;7.88;;;2.13;;
66721;SDS011;53633;49.932;10.884;2023-11-21T14:17:05;6.47;;;1.90;;
66721;SDS011;53633;49.932;10.884;2023-11-21T14:19:32;7.67;;;1.60;;
66721;SDS011;53633;49.932;10.884;2023-11-21T14:21:59;5.35;;;1.33;;
66721;SDS011;53633;49.932;10.884;2023-11-21T14:24:26;7.63;;;2.35;;
66721;SDS011;53633;49.932;10.884;2023-11-21T14:26:53;5.60;;;2.30;;
66721;SDS011;53633;49.932;10.884;2023-11-21T14:29:20;9.60;;;2.17;;
66721;SDS011;53633;49.932;10.884;2023-11-21T14:31:47;8.70;;;2.03;;
66721;SDS011;53633;49.932;10.884;2023-11-21T14:34:16;10.13;;;2.42;;
66721;SDS011;53633;49.932;10.884;2023-11-21T14:36:47;8.85;;;1.95;;